createdAt,value
2023-01-19T00:01:41.856Z,99633.25
2023-01-19T00:04:11.882Z,99634.06
2023-01-19T00:06:41.093Z,99643.72
2023-01-19T00:09:09.610Z,99641.91
2023-01-19T00:11:37.870Z,99624.34
2023-01-19T00:14:06.557Z,99619.06
2023-01-19T00:16:35.001Z,99618.94
2023-01-19T00:19:03.294Z,99615.19
2023-01-19T00:21:33.025Z,99614.13
2023-01-19T00:24:01.221Z,99615.84
2023-01-19T00:26:29.253Z,99606.81
2023-01-19T00:28:57.724Z,99607.53
2023-01-19T00:31:25.852Z,99600.34
2023-01-19T00:33:54.255Z,99602.00
2023-01-19T00:36:22.400Z,99599.34
2023-01-19T00:38:52.196Z,99593.22
2023-01-19T00:41:40.261Z,99593.22
2023-01-19T00:44:07.755Z,99590.69
2023-01-19T00:46:35.836Z,99585.50
2023-01-19T00:49:03.983Z,99589.09
2023-01-19T00:51:32.410Z,99580.56
2023-01-19T00:54:04.997Z,99581.50
2023-01-19T00:56:33.219Z,99587.03
2023-01-19T00:59:01.473Z,99574.72
2023-01-19T01:01:45.332Z,99575.69
2023-01-19T01:04:14.486Z,99568.06
2023-01-19T01:06:42.774Z,99572.00
2023-01-19T01:09:13.070Z,99562.59
2023-01-19T01:11:41.208Z,99554.03
2023-01-19T01:14:09.615Z,99556.94
2023-01-19T01:16:37.873Z,99555.56
2023-01-19T01:19:05.938Z,99554.22
2023-01-19T01:21:35.870Z,99551.75
2023-01-19T01:24:04.061Z,99556.44
2023-01-19T01:26:33.838Z,99556.66
2023-01-19T01:29:02.073Z,99556.88
2023-01-19T01:31:31.945Z,99549.91
2023-01-19T01:34:00.267Z,99551.59
2023-01-19T01:36:33.526Z,99557.84
2023-01-19T01:39:01.668Z,99545.44
2023-01-19T01:41:30.913Z,99548.94
2023-01-19T01:44:01.948Z,99546.31
2023-01-19T01:46:31.199Z,99545.31
2023-01-19T01:49:04.501Z,99539.31
2023-01-19T01:51:35.227Z,99540.25
2023-01-19T01:54:06.962Z,99532.31
2023-01-19T01:56:36.717Z,99535.91
2023-01-19T01:59:08.534Z,99527.13
2023-01-19T02:01:54.692Z,99532.31
2023-01-19T02:04:24.552Z,99527.00
2023-01-19T02:07:10.095Z,99522.59
2023-01-19T02:09:56.648Z,99521.72
2023-01-19T02:12:47.930Z,99518.34
2023-01-19T02:15:18.398Z,99512.19
2023-01-19T02:17:46.771Z,99512.19
2023-01-19T02:20:15.233Z,99513.28
2023-01-19T02:22:46.687Z,99508.19
2023-01-19T02:25:16.683Z,99507.47
2023-01-19T02:27:44.905Z,99509.28
2023-01-19T02:30:14.501Z,99510.84
2023-01-19T02:32:42.542Z,99506.28
2023-01-19T02:35:11.490Z,99502.69
2023-01-19T02:37:41.369Z,99491.00
2023-01-19T02:40:11.483Z,99490.91
2023-01-19T02:42:43.789Z,99485.41
2023-01-19T02:45:14.571Z,99486.13
2023-01-19T02:47:45.165Z,99487.81
2023-01-19T02:50:35.764Z,99479.66
2023-01-19T02:53:08.753Z,99475.94
2023-01-19T02:55:37.704Z,99475.72
2023-01-19T02:58:10.948Z,99473.06
2023-01-19T03:00:44.324Z,99469.25
2023-01-19T03:03:21.806Z,99472.59
2023-01-19T03:05:57.032Z,99471.66
2023-01-19T03:08:32.521Z,99475.78
2023-01-19T03:11:03.505Z,99475.66
2023-01-19T03:13:39.518Z,99477.34
2023-01-19T03:16:12.931Z,99464.94
2023-01-19T03:18:48.656Z,99466.53
2023-01-19T03:21:19.789Z,99453.16
2023-01-19T03:23:48.899Z,99455.69
2023-01-19T03:26:19.433Z,99459.06
2023-01-19T03:28:50.132Z,99449.34
2023-01-19T03:31:21.284Z,99450.91
2023-01-19T03:33:51.632Z,99456.22
2023-01-19T03:36:21.808Z,99455.22
2023-01-19T03:38:51.258Z,99450.81
2023-01-19T03:41:20.692Z,99447.06
2023-01-19T03:43:52.036Z,99450.56
2023-01-19T03:46:22.118Z,99442.50
2023-01-19T03:48:51.016Z,99442.50
2023-01-19T03:51:39.154Z,99443.34
2023-01-19T03:54:07.829Z,99439.84
2023-01-19T03:56:36.067Z,99451.16
2023-01-19T03:59:06.096Z,99445.88
2023-01-19T04:01:34.407Z,99451.03
2023-01-19T04:04:02.815Z,99448.41
2023-01-19T04:06:32.111Z,99439.50
2023-01-19T04:09:00.232Z,99441.19
2023-01-19T04:11:28.526Z,99441.19
2023-01-19T04:13:56.675Z,99439.50
2023-01-19T04:16:26.430Z,99441.31
2023-01-19T04:18:54.479Z,99442.03
2023-01-19T04:21:22.753Z,99437.59
2023-01-19T04:23:51.100Z,99436.72
2023-01-19T04:26:19.530Z,99440.31
2023-01-19T04:28:47.785Z,99443.72
2023-01-19T04:31:16.162Z,99444.69
2023-01-19T04:33:45.765Z,99438.44
2023-01-19T04:36:13.857Z,99440.00
2023-01-19T04:38:42.217Z,99439.88
2023-01-19T04:41:10.869Z,99438.81
2023-01-19T04:43:38.916Z,99441.34
2023-01-19T04:46:07.221Z,99436.88
2023-01-19T04:48:35.315Z,99430.75
2023-01-19T04:51:05.019Z,99441.94
2023-01-19T04:53:33.390Z,99426.91
2023-01-19T04:56:01.542Z,99428.69
2023-01-19T04:58:29.750Z,99439.28
2023-01-19T05:00:57.843Z,99430.50
2023-01-19T05:03:26.705Z,99436.75
2023-01-19T05:05:55.221Z,99435.06
2023-01-19T05:08:24.799Z,99441.34
2023-01-19T05:10:53.418Z,99436.03
2023-01-19T05:13:21.557Z,99435.06
2023-01-19T05:15:50.484Z,99429.06
2023-01-19T05:18:18.791Z,99438.69
2023-01-19T05:20:47.033Z,99428.81
2023-01-19T05:23:15.170Z,99424.25
2023-01-19T05:25:46.007Z,99422.31
2023-01-19T05:28:15.365Z,99418.72
2023-01-19T05:30:43.539Z,99424.72
2023-01-19T05:33:11.847Z,99428.34
2023-01-19T05:35:40.364Z,99431.97
2023-01-19T05:38:08.413Z,99425.94
2023-01-19T05:40:36.563Z,99418.22
2023-01-19T05:43:06.077Z,99418.22
2023-01-19T05:45:34.417Z,99423.75
2023-01-19T05:48:02.480Z,99420.38
2023-01-19T05:50:30.746Z,99431.19
2023-01-19T05:52:59.168Z,99434.44
2023-01-19T05:55:28.391Z,99434.03
2023-01-19T05:57:56.469Z,99445.09
2023-01-19T06:00:27.689Z,99432.34
2023-01-19T06:02:55.911Z,99437.94
2023-01-19T06:05:24.078Z,99435.66
2023-01-19T06:07:52.757Z,99439.03
2023-01-19T06:10:21.035Z,99442.88
2023-01-19T06:12:49.778Z,99438.75
2023-01-19T06:15:18.140Z,99437.28
2023-01-19T06:17:47.887Z,99442.41
2023-01-19T06:20:16.124Z,99444.88
2023-01-19T06:22:44.151Z,99448.94
2023-01-19T06:25:13.181Z,99458.28
2023-01-19T06:27:44.413Z,99457.03
2023-01-19T06:30:13.531Z,99454.72
2023-01-19T06:32:41.774Z,99452.19
2023-01-19T06:35:12.688Z,99455.06
2023-01-19T06:37:41.095Z,99461.53
2023-01-19T06:40:09.807Z,99465.13
2023-01-19T06:42:38.116Z,99463.41
2023-01-19T06:45:06.836Z,99468.94
2023-01-19T06:47:35.051Z,99474.44
2023-01-19T06:50:03.638Z,99465.78
2023-01-19T06:52:33.140Z,99456.16
2023-01-19T06:55:01.280Z,99460.91
2023-01-19T06:57:29.617Z,99459.19
2023-01-19T06:59:59.757Z,99465.69
2023-01-19T07:02:28.866Z,99467.91
2023-01-19T07:04:57.120Z,99462.19
2023-01-19T07:07:25.349Z,99469.41
2023-01-19T07:09:55.467Z,99475.63
2023-01-19T07:12:23.805Z,99471.50
2023-01-19T07:14:52.852Z,99471.72
2023-01-19T07:17:21.062Z,99471.72
2023-01-19T07:19:49.390Z,99478.94
2023-01-19T07:22:17.664Z,99473.94
2023-01-19T07:24:45.782Z,99472.16
2023-01-19T07:27:16.649Z,99480.19
2023-01-19T07:29:44.811Z,99480.19
2023-01-19T07:32:12.948Z,99488.22
2023-01-19T07:34:41.220Z,99487.56
2023-01-19T07:37:09.303Z,99489.28
2023-01-19T07:39:37.721Z,99487.38
2023-01-19T07:42:05.942Z,99496.16
2023-01-19T07:44:35.539Z,99505.75
2023-01-19T07:47:06.177Z,99512.75
2023-01-19T07:49:35.826Z,99512.75
2023-01-19T07:52:03.877Z,99519.72
2023-01-19T07:54:32.259Z,99517.19
2023-01-19T07:57:00.987Z,99519.84
2023-01-19T07:59:30.397Z,99525.22
2023-01-19T08:02:00.568Z,99526.38
2023-01-19T08:04:28.749Z,99530.06
2023-01-19T08:06:57.340Z,99528.59
2023-01-19T08:09:25.593Z,99535.84
2023-01-19T08:11:53.645Z,99529.19
2023-01-19T08:14:21.824Z,99535.56
2023-01-19T08:16:50.236Z,99536.34
2023-01-19T08:19:20.762Z,99543.72
2023-01-19T08:21:49.083Z,99547.00
2023-01-19T08:24:19.779Z,99556.84
2023-01-19T08:26:48.316Z,99566.56
2023-01-19T08:29:16.903Z,99566.06
2023-01-19T08:31:45.595Z,99569.88
2023-01-19T08:34:14.001Z,99575.16
2023-01-19T08:36:43.474Z,99586.25
2023-01-19T08:39:12.369Z,99592.91
2023-01-19T08:41:40.404Z,99597.34
2023-01-19T08:44:08.610Z,99592.06
2023-01-19T08:46:37.011Z,99591.41
2023-01-19T08:49:05.135Z,99596.09
2023-01-19T08:51:33.316Z,99601.47
2023-01-19T08:54:02.890Z,99607.38
2023-01-19T08:56:31.693Z,99602.41
2023-01-19T08:59:09.169Z,99604.31
2023-01-19T09:01:39.168Z,99606.19
2023-01-19T09:04:08.095Z,99598.16
2023-01-19T09:06:36.415Z,99598.06
2023-01-19T09:09:06.028Z,99602.41
2023-01-19T09:11:35.157Z,99610.44
2023-01-19T09:14:04.413Z,99613.91
2023-01-19T09:16:32.618Z,99612.97
2023-01-19T09:19:00.643Z,99618.03
2023-01-19T09:21:28.940Z,99623.22
2023-01-19T09:23:57.864Z,99626.53
2023-01-19T09:26:27.509Z,99624.44
2023-01-19T09:28:55.816Z,99632.69
2023-01-19T09:31:24.324Z,99642.97
2023-01-19T09:33:52.664Z,99646.25
2023-01-19T09:36:20.849Z,99644.13
2023-01-19T09:38:49.219Z,99650.91
2023-01-19T09:41:21.158Z,99652.38
2023-01-19T09:43:53.312Z,99660.88
2023-01-19T09:46:24.724Z,99663.28
2023-01-19T09:48:53.802Z,99668.91
2023-01-19T09:51:23.939Z,99667.31
2023-01-19T09:54:01.470Z,99675.91
2023-01-19T09:56:30.419Z,99672.94
2023-01-19T09:59:00.654Z,99683.94
2023-01-19T10:01:41.770Z,99690.84
2023-01-19T10:04:18.900Z,99707.31
2023-01-19T10:06:48.614Z,99719.97
2023-01-19T10:09:20.997Z,99723.97
2023-01-19T10:11:57.820Z,99728.31
2023-01-19T10:14:33.257Z,99731.59
2023-01-19T10:17:12.241Z,99746.25
2023-01-19T10:19:49.655Z,99738.78
2023-01-19T10:22:25.418Z,99742.66
2023-01-19T10:24:56.937Z,99747.16
2023-01-19T10:27:27.611Z,99748.66
2023-01-19T10:29:59.664Z,99755.56
2023-01-19T10:32:31.585Z,99745.88
2023-01-19T10:35:02.081Z,99756.75
2023-01-19T10:37:33.105Z,99751.13
2023-01-19T10:40:06.560Z,99749.88
2023-01-19T10:42:39.563Z,99746.75
2023-01-19T10:45:17.377Z,99753.56
2023-01-19T10:47:47.993Z,99749.09
2023-01-19T10:50:34.048Z,99754.16
2023-01-19T10:53:05.890Z,99755.09
2023-01-19T10:55:37.798Z,99753.00
2023-01-19T10:58:07.134Z,99753.16
2023-01-19T11:00:40.749Z,99752.94
2023-01-19T11:03:24.080Z,99747.06
2023-01-19T11:05:53.356Z,99759.09
2023-01-19T11:08:23.299Z,99763.13
2023-01-19T11:10:57.815Z,99760.66
2023-01-19T11:13:27.214Z,99763.56
2023-01-19T11:16:00.934Z,99768.63
2023-01-19T11:18:32.538Z,99774.16
2023-01-19T11:21:02.976Z,99772.50
2023-01-19T11:23:33.732Z,99784.53
2023-01-19T11:26:04.155Z,99787.44
2023-01-19T11:28:38.273Z,99784.53
2023-01-19T11:31:20.851Z,99778.50
2023-01-19T11:33:53.544Z,99782.56
2023-01-19T11:36:23.839Z,99772.44
2023-01-19T11:38:53.103Z,99763.69
2023-01-19T11:41:22.375Z,99760.38
2023-01-19T11:43:53.117Z,99754.34
2023-01-19T11:46:24.426Z,99757.09
2023-01-19T11:48:58.107Z,99755.00
2023-01-19T11:51:29.167Z,99765.84
2023-01-19T11:53:57.255Z,99764.56
2023-01-19T11:56:28.335Z,99779.44
2023-01-19T11:58:57.016Z,99774.78
2023-01-19T12:01:29.764Z,99761.31
2023-01-19T12:04:00.780Z,99763.50
2023-01-19T12:06:32.310Z,99760.31
2023-01-19T12:09:03.558Z,99768.25
2023-01-19T12:11:34.586Z,99756.66
2023-01-19T12:14:03.459Z,99763.81
2023-01-19T12:16:34.726Z,99756.13
2023-01-19T12:19:05.379Z,99742.41
2023-01-19T12:21:33.617Z,99747.00
2023-01-19T12:24:08.703Z,99747.19
2023-01-19T12:26:38.662Z,99742.56
2023-01-19T12:29:13.012Z,99746.44
2023-01-19T12:31:44.077Z,99748.59
2023-01-19T12:34:40.721Z,99758.16
2023-01-19T12:37:29.193Z,99743.72
2023-01-19T12:39:58.453Z,99734.69
2023-01-19T12:42:27.705Z,99730.22
2023-01-19T12:45:05.501Z,99726.88
2023-01-19T12:47:35.950Z,99752.56
2023-01-19T12:50:07.083Z,99744.03
2023-01-19T12:52:37.318Z,99739.41
2023-01-19T12:55:16.780Z,99746.69
2023-01-19T12:57:50.606Z,99752.41
2023-01-19T13:00:30.289Z,99763.97
2023-01-19T13:03:01.181Z,99774.53
2023-01-19T13:05:59.368Z,99788.09
2023-01-19T13:08:30.000Z,99784.91
2023-01-19T13:11:19.796Z,99779.53
2023-01-19T13:14:06.773Z,99786.19
2023-01-19T13:16:59.086Z,99780.00
2023-01-19T13:19:44.969Z,99789.25
2023-01-19T13:22:32.226Z,99788.09
2023-01-19T13:25:07.820Z,99777.47
2023-01-19T13:27:36.662Z,99771.22
2023-01-19T13:30:10.888Z,99764.81
2023-01-19T13:32:41.781Z,99775.53
2023-01-19T13:35:23.732Z,99774.44
2023-01-19T13:38:01.369Z,99779.06
2023-01-19T13:40:37.612Z,99780.41
2023-01-19T13:43:15.581Z,99784.31
2023-01-19T13:45:53.648Z,99788.22
2023-01-19T13:48:28.735Z,99783.94
2023-01-19T13:51:22.978Z,99781.78
2023-01-19T13:54:01.589Z,99776.19
2023-01-19T13:56:35.990Z,99782.03
2023-01-19T13:59:15.112Z,99783.88
2023-01-19T14:01:51.857Z,99790.22
2023-01-19T14:04:31.764Z,99804.03
2023-01-19T14:07:03.444Z,99804.31
2023-01-19T14:09:32.195Z,99803.56
2023-01-19T14:12:12.448Z,99810.63
2023-01-19T14:14:44.462Z,99814.91
2023-01-19T14:17:26.107Z,99812.31
2023-01-19T14:20:01.074Z,99820.66
2023-01-19T14:22:47.835Z,99816.41
2023-01-19T14:25:27.569Z,99831.19
2023-01-19T14:28:10.455Z,99837.22
2023-01-19T14:30:39.847Z,99839.91
2023-01-19T14:33:33.516Z,99840.41
2023-01-19T14:36:11.113Z,99839.78
2023-01-19T14:38:39.833Z,99840.72
2023-01-19T14:41:13.066Z,99843.84
2023-01-19T14:43:44.269Z,99839.72
2023-01-19T14:46:19.904Z,99846.44
2023-01-19T14:48:48.749Z,99855.06
2023-01-19T14:51:18.773Z,99857.03
2023-01-19T14:53:52.787Z,99862.81
2023-01-19T14:56:31.272Z,99876.34
2023-01-19T14:59:03.395Z,99891.75
2023-01-19T15:01:38.709Z,99900.31
2023-01-19T15:04:09.041Z,99910.16
2023-01-19T15:06:47.490Z,99921.59
2023-01-19T15:09:16.707Z,99924.03
2023-01-19T15:11:54.535Z,99922.31
2023-01-19T15:14:24.878Z,99929.22
2023-01-19T15:16:58.022Z,99932.06
2023-01-19T15:19:30.598Z,99940.25
2023-01-19T15:22:03.548Z,99943.75
2023-01-19T15:24:35.723Z,99950.50
2023-01-19T15:27:06.541Z,99958.13
2023-01-19T15:29:39.403Z,99964.88
2023-01-19T15:35:20.770Z,99966.56
2023-01-19T15:40:51.676Z,99975.88
2023-01-19T15:43:23.417Z,99981.50
2023-01-19T15:45:55.898Z,99990.50
2023-01-19T15:48:23.990Z,100001.78
2023-01-19T15:50:52.038Z,100001.09
2023-01-19T15:53:25.069Z,99998.25
2023-01-19T15:55:55.561Z,99998.41
2023-01-19T15:58:32.012Z,100002.59
2023-01-19T16:01:01.851Z,99995.38
2023-01-19T16:03:30.450Z,99995.94
2023-01-19T16:06:01.060Z,99997.47
2023-01-19T16:08:29.750Z,100005.56
2023-01-19T16:10:58.520Z,100013.41
2023-01-19T16:13:30.718Z,100018.84
2023-01-19T16:16:02.726Z,100017.97
2023-01-19T16:18:33.781Z,100027.75
2023-01-19T16:21:02.097Z,100033.78
2023-01-19T16:23:33.836Z,100040.72
2023-01-19T16:26:05.178Z,100047.56
2023-01-19T16:28:33.345Z,100054.94
2023-01-19T16:31:03.443Z,100050.63
2023-01-19T16:33:31.952Z,100063.03
2023-01-19T16:36:01.014Z,100055.47
2023-01-19T16:38:29.107Z,100063.50
2023-01-19T16:40:57.175Z,100063.91
2023-01-19T16:43:28.244Z,100067.81
2023-01-19T16:45:59.060Z,100074.13
2023-01-19T16:48:29.068Z,100069.28
2023-01-19T16:51:00.965Z,100075.81
2023-01-19T16:53:29.287Z,100077.38
2023-01-19T16:55:57.404Z,100080.91
2023-01-19T16:58:25.657Z,100086.44
2023-01-19T17:00:54.074Z,100085.22
2023-01-19T17:03:24.498Z,100088.41
2023-01-19T17:05:54.499Z,100090.38
2023-01-19T17:08:22.990Z,100095.16
2023-01-19T17:10:51.360Z,100097.72
2023-01-19T17:13:19.577Z,100103.47
2023-01-19T17:15:47.871Z,100102.22
2023-01-19T17:18:16.021Z,100101.69
2023-01-19T17:20:44.075Z,100104.59
2023-01-19T17:23:13.561Z,100111.31
2023-01-19T17:25:41.993Z,100117.06
2023-01-19T17:28:10.061Z,100122.50
2023-01-19T17:30:38.275Z,100121.47
2023-01-19T17:33:06.368Z,100121.03
2023-01-19T17:35:35.226Z,100133.16
2023-01-19T17:38:03.399Z,100142.50
2023-01-19T17:40:32.883Z,100142.72
2023-01-19T17:43:01.409Z,100150.13
2023-01-19T17:45:29.521Z,100146.22
2023-01-19T17:47:58.116Z,100155.53
2023-01-19T17:50:26.331Z,100159.56
2023-01-19T17:52:54.370Z,100158.81
2023-01-19T17:55:22.544Z,100167.06
2023-01-19T17:57:53.086Z,100167.59
2023-01-19T18:00:21.640Z,100175.44
2023-01-19T18:02:50.257Z,100181.53
2023-01-19T18:05:18.431Z,100180.78
2023-01-19T18:07:46.637Z,100176.84
2023-01-19T18:10:15.763Z,100181.38
2023-01-19T18:12:45.290Z,100183.28
2023-01-19T18:15:16.837Z,100176.47
2023-01-19T18:17:45.346Z,100171.38
2023-01-19T18:20:13.974Z,100184.84
2023-01-19T18:22:42.571Z,100190.63
2023-01-19T18:25:11.149Z,100188.28
2023-01-19T18:27:39.245Z,100189.63
2023-01-19T18:30:07.983Z,100187.38
2023-01-19T18:32:37.157Z,100191.16
2023-01-19T18:35:08.925Z,100195.56
2023-01-19T18:37:37.116Z,100211.66
2023-01-19T18:40:05.705Z,100211.03
2023-01-19T18:42:35.348Z,100209.53
2023-01-19T18:45:03.481Z,100214.03
2023-01-19T18:47:33.570Z,100219.63
2023-01-19T18:50:01.763Z,100225.22
2023-01-19T18:52:32.407Z,100229.75
2023-01-19T18:55:00.927Z,100220.13
2023-01-19T18:57:29.369Z,100224.66
2023-01-19T18:59:57.654Z,100220.47
2023-01-19T19:02:25.800Z,100220.56
2023-01-19T19:04:54.154Z,100221.16
2023-01-19T19:07:22.317Z,100224.09
2023-01-19T19:09:51.932Z,100227.88
2023-01-19T19:12:19.965Z,100240.69
2023-01-19T19:14:48.129Z,100243.34
2023-01-19T19:17:16.218Z,100241.81
2023-01-19T19:19:44.435Z,100246.53
2023-01-19T19:22:12.517Z,100247.59
2023-01-19T19:24:41.553Z,100253.81
2023-01-19T19:27:14.399Z,100263.72
2023-01-19T19:29:44.085Z,100274.50
2023-01-19T19:32:12.470Z,100276.47
2023-01-19T19:34:40.782Z,100278.25
2023-01-19T19:37:08.995Z,100273.06
2023-01-19T19:39:38.407Z,100277.88
2023-01-19T19:42:06.444Z,100275.38
2023-01-19T19:44:35.987Z,100278.19
2023-01-19T19:47:04.394Z,100275.84
2023-01-19T19:49:32.506Z,100283.69
2023-01-19T19:52:00.561Z,100285.41
2023-01-19T19:54:28.859Z,100289.66
2023-01-19T19:56:56.906Z,100288.78
2023-01-19T19:59:24.998Z,100290.69
2023-01-19T20:01:55.326Z,100286.50
2023-01-19T20:04:25.707Z,100287.63
2023-01-19T20:06:54.071Z,100287.63
2023-01-19T20:09:22.528Z,100284.97
2023-01-19T20:11:52.398Z,100294.03
2023-01-19T20:14:22.574Z,100286.88
2023-01-19T20:16:50.915Z,100283.72
2023-01-19T20:19:20.412Z,100291.13
2023-01-19T20:21:48.528Z,100290.56
2023-01-19T20:24:18.033Z,100291.41
2023-01-19T20:26:46.992Z,100284.41
2023-01-19T20:29:15.100Z,100293.94
2023-01-19T20:31:45.196Z,100296.59
2023-01-19T20:34:14.592Z,100302.72
2023-01-19T20:36:46.911Z,100313.25
2023-01-19T20:39:15.184Z,100317.84
2023-01-19T20:41:46.523Z,100318.94
2023-01-19T20:44:20.297Z,100320.75
2023-01-19T20:46:56.266Z,100325.88
2023-01-19T20:49:26.914Z,100325.69
2023-01-19T20:52:03.065Z,100325.69
2023-01-19T20:54:36.339Z,100335.81
2023-01-19T20:57:11.001Z,100335.06
2023-01-19T20:59:44.579Z,100341.13
2023-01-19T21:02:19.593Z,100350.94
2023-01-19T21:04:56.050Z,100358.97
2023-01-19T21:07:32.097Z,100353.66
2023-01-19T21:10:06.714Z,100366.88
2023-01-19T21:12:41.610Z,100376.84
2023-01-19T21:15:11.708Z,100371.91
2023-01-19T21:17:45.239Z,100366.88
2023-01-19T21:20:22.897Z,100370.63
2023-01-19T21:23:02.286Z,100373.44
2023-01-19T21:25:37.664Z,100379.91
2023-01-19T21:28:08.162Z,100382.69
2023-01-19T21:30:43.609Z,100386.09
2023-01-19T21:33:19.576Z,100387.63
2023-01-19T21:35:54.117Z,100399.06
2023-01-19T21:38:25.058Z,100400.22
2023-01-19T21:40:53.749Z,100399.03
2023-01-19T21:43:21.897Z,100399.72
2023-01-19T21:45:50.087Z,100404.22
2023-01-19T21:48:19.819Z,100407.56
2023-01-19T21:50:56.862Z,100406.88
2023-01-19T21:53:26.831Z,100415.94
2023-01-19T21:55:54.888Z,100413.47
2023-01-19T21:58:24.264Z,100420.03
2023-01-19T22:00:52.418Z,100416.97
2023-01-19T22:03:20.757Z,100416.31
2023-01-19T22:05:48.934Z,100418.59
2023-01-19T22:08:17.252Z,100424.25
2023-01-19T22:10:47.051Z,100421.78
2023-01-19T22:13:15.396Z,100424.56
2023-01-19T22:15:43.808Z,100426.53
2023-01-19T22:18:12.348Z,100427.63
2023-01-19T22:20:40.731Z,100419.16
2023-01-19T22:23:08.909Z,100427.19
2023-01-19T22:25:37.144Z,100422.94
2023-01-19T22:28:06.655Z,100419.59
2023-01-19T22:30:35.419Z,100424.97
2023-01-19T22:33:03.852Z,100424.25
2023-01-19T22:35:32.041Z,100430.66
2023-01-19T22:38:00.284Z,100425.63
2023-01-19T22:40:29.035Z,100436.34
2023-01-19T22:42:57.182Z,100443.53
2023-01-19T22:45:26.715Z,100452.38
2023-01-19T22:47:54.774Z,100450.66
2023-01-19T22:50:22.935Z,100448.09
2023-01-19T22:52:51.350Z,100450.66
2023-01-19T22:55:19.857Z,100446.31
2023-01-19T22:57:48.413Z,100454.41
2023-01-19T23:00:17.305Z,100451.00
2023-01-19T23:02:53.261Z,100453.00
2023-01-19T23:05:29.322Z,100461.13
2023-01-19T23:08:04.346Z,100458.63
2023-01-19T23:10:39.227Z,100461.28
2023-01-19T23:13:10.106Z,100452.50
2023-01-19T23:15:45.087Z,100461.28
2023-01-19T23:18:17.407Z,100452.41
2023-01-19T23:20:51.015Z,100456.00
2023-01-19T23:23:40.738Z,100443.69
2023-01-19T23:26:11.316Z,100444.66
2023-01-19T23:28:43.942Z,100445.59
2023-01-19T23:31:25.511Z,100447.44
2023-01-19T23:34:02.277Z,100441.31
2023-01-19T23:36:38.986Z,100449.22
2023-01-19T23:39:14.700Z,100441.38
2023-01-19T23:41:46.322Z,100451.97
2023-01-19T23:44:20.747Z,100452.78
2023-01-19T23:46:55.662Z,100441.38
2023-01-19T23:49:35.217Z,100451.97
2023-01-19T23:52:05.908Z,100443.94
2023-01-19T23:54:40.235Z,100443.09
2023-01-19T23:57:12.753Z,100441.38
2023-01-19T23:59:47.242Z,100442.31
